This is the latest recevied weather packets stored in our database for station/object DD3UTS-13. If no packets are shown the sender has not sent any weather packets the latest 1 day(s).
| Time | Temp. | Humidity | Pressure | Rain* | Wind** | Luminosity | Snow |
|---|---|---|---|---|---|---|---|
| 1777983332 | 22.22° C | 53% | 1007.6 hPa | 0.25 mm | 2.24 m/s, 340° | 439 W/m² | - |
| 1777983031 | 22.22° C | 53% | 1007.8 hPa | 0.25 mm | 2.24 m/s, 305° | 388 W/m² | - |
| 1777982732 | 22.22° C | 50% | 1007.7 hPa | 0.25 mm | 1.79 m/s, 355° | 355 W/m² | - |
| 1777982431 | 22.22° C | 49% | 1007.8 hPa | 0.25 mm | 2.68 m/s, 347° | 346 W/m² | - |
| 1777981831 | 22.78° C | 49% | 1007.8 hPa | 0.25 mm | 3.58 m/s, 340° | 556 W/m² | - |
| 1777981532 | 22.78° C | 49% | 1007.9 hPa | 0.25 mm | 3.13 m/s, 347° | 716 W/m² | - |
| 1777979732 | 22.22° C | 53% | 1008 hPa | 0.25 mm | 2.24 m/s, 342° | 487 W/m² | - |
| 1777979132 | 22.22° C | 54% | 1008.2 hPa | 0.25 mm | 2.68 m/s, 330° | 532 W/m² | - |
| 1777978832 | 22.22° C | 54% | 1008.3 hPa | 0.25 mm | 2.68 m/s, 305° | 641 W/m² | - |
| 1777978531 | 21.67° C | 53% | 1008.3 hPa | 0.25 mm | 2.68 m/s, 275° | 539 W/m² | - |
| 1777977632 | 21.11° C | 55% | 1008.2 hPa | 0.25 mm | 1.79 m/s, 357° | 437 W/m² | - |
| 1777977331 | 21.11° C | 55% | 1008.3 hPa | 0.25 mm | 1.79 m/s, 357° | 437 W/m² | - |
| 1777977032 | 21.11° C | 56% | 1008.4 hPa | 0.25 mm | 2.24 m/s, 357° | 488 W/m² | - |
| 1777976731 | 21.11° C | 54% | 1008.3 hPa | 0.25 mm | 2.24 m/s, 342° | 398 W/m² | - |
| 1777976132 | 21.11° C | 54% | 1008.5 hPa | 0.25 mm | 3.58 m/s, 307° | 545 W/m² | - |
| 1777975832 | 21.11° C | 55% | 1008.5 hPa | 0.25 mm | 2.24 m/s, 345° | 488 W/m² | - |
| 1777974632 | 21.11° C | 56% | 1008.5 hPa | 0.25 mm | 1.79 m/s, 357° | 402 W/m² | - |
| 1777973433 | 20.56° C | 58% | 1008.6 hPa | 0.25 mm | 1.79 m/s, 357° | 484 W/m² | - |
| 1777973132 | 20.56° C | 59% | 1008.7 hPa | 0.25 mm | 1.79 m/s, 335° | 545 W/m² | - |
| 1777972232 | 20° C | 60% | 1008.7 hPa | 0.25 mm | 3.13 m/s, 357° | 650 W/m² | - |
| 1777971931 | 19.44° C | 60% | 1008.7 hPa | 0.25 mm | 2.24 m/s, 247° | 596 W/m² | - |
| 1777971331 | 19.44° C | 63% | 1008.9 hPa | 0.25 mm | 0.89 m/s, 310° | 512 W/m² | - |
| 1777971032 | 18.33° C | 66% | 1008.8 hPa | 0.25 mm | 2.24 m/s, 342° | 598 W/m² | - |
| 1777970731 | 17.78° C | 67% | 1008.8 hPa | 0.25 mm | 2.68 m/s, 255° | 670 W/m² | - |
| 1777970431 | 17.78° C | 68% | 1008.7 hPa | 0.25 mm | 1.79 m/s, 272° | 468 W/m² | - |
* Rain latest 24 hours (hover to see other rain measurements)
** Current wind speed in m/s (hover to see current wind gust speed)